createdAt,value
2018-06-14T00:00:04.098Z,24.27
2018-06-14T00:02:32.539Z,20.70
2018-06-14T00:05:01.145Z,21.47
2018-06-14T00:07:29.720Z,19.23
2018-06-14T00:09:58.181Z,21.83
2018-06-14T00:12:26.668Z,16.40
2018-06-14T00:14:55.144Z,16.63
2018-06-14T00:17:24.442Z,20.77
2018-06-14T00:19:52.973Z,20.77
2018-06-14T00:22:21.491Z,23.67
2018-06-14T00:24:50.401Z,17.03
2018-06-14T00:27:18.829Z,20.07
2018-06-14T00:29:47.271Z,15.70
2018-06-14T00:32:15.887Z,17.87
2018-06-14T00:34:44.397Z,14.77
2018-06-14T00:37:12.958Z,25.53
2018-06-14T00:39:42.966Z,15.67
2018-06-14T00:42:12.789Z,24.63
2018-06-14T00:44:41.546Z,19.37
2018-06-14T00:47:10.021Z,21.40
2018-06-14T00:49:38.486Z,21.03
2018-06-14T00:52:07.707Z,18.33
2018-06-14T00:54:38.725Z,17.83
2018-06-14T00:57:16.388Z,19.37
2018-06-14T00:59:45.812Z,16.23
2018-06-14T01:02:14.590Z,17.10
2018-06-14T01:04:43.288Z,21.53
2018-06-14T01:07:11.815Z,17.00
2018-06-14T01:09:41.388Z,24.43
2018-06-14T01:12:10.347Z,15.43
2018-06-14T01:14:38.984Z,20.77
2018-06-14T01:17:08.173Z,17.37
2018-06-14T01:19:36.626Z,16.90
2018-06-14T01:22:05.084Z,21.50
2018-06-14T01:24:35.892Z,16.50
2018-06-14T01:27:07.668Z,20.90
2018-06-14T01:29:36.047Z,14.97
2018-06-14T01:32:05.125Z,15.07
2018-06-14T01:34:33.559Z,17.90
2018-06-14T01:37:02.133Z,23.90
2018-06-14T01:39:30.576Z,15.57
2018-06-14T01:41:59.257Z,15.97
2018-06-14T01:44:27.707Z,20.70
2018-06-14T01:46:56.292Z,19.83
2018-06-14T01:49:24.580Z,19.50
2018-06-14T01:51:53.240Z,21.53
2018-06-14T01:54:21.758Z,26.83
2018-06-14T01:56:50.158Z,17.37
2018-06-14T01:59:18.706Z,28.07
2018-06-14T02:01:47.327Z,19.43
2018-06-14T02:04:15.790Z,16.03
2018-06-14T02:06:44.429Z,18.00
2018-06-14T02:09:12.939Z,25.37
2018-06-14T02:11:41.437Z,17.83
2018-06-14T02:14:10.108Z,21.07
2018-06-14T02:16:39.323Z,25.83
2018-06-14T02:19:07.726Z,18.83
2018-06-14T02:21:36.216Z,23.33
2018-06-14T02:24:04.713Z,22.83
2018-06-14T02:26:33.184Z,24.90
2018-06-14T02:29:01.552Z,16.70
2018-06-14T02:31:30.106Z,17.50
2018-06-14T02:33:58.845Z,25.10
2018-06-14T02:36:27.206Z,22.27
2018-06-14T02:38:55.595Z,21.63
2018-06-14T02:41:24.129Z,17.73
2018-06-14T02:43:52.803Z,22.13
2018-06-14T02:46:21.399Z,33.97
2018-06-14T02:48:50.614Z,25.23
2018-06-14T02:51:19.642Z,24.10
2018-06-14T02:53:48.798Z,36.53
2018-06-14T02:56:17.929Z,28.27
2018-06-14T02:58:46.324Z,26.60
2018-06-14T03:01:14.735Z,21.13
2018-06-14T03:03:43.254Z,16.77
2018-06-14T03:06:11.743Z,19.00
2018-06-14T03:08:40.174Z,22.90
2018-06-14T03:11:08.659Z,28.47
2018-06-14T03:13:37.118Z,25.80
2018-06-14T03:16:05.510Z,18.50
2018-06-14T03:18:33.936Z,34.77
2018-06-14T03:21:04.020Z,25.70
2018-06-14T03:23:32.827Z,25.23
2018-06-14T03:26:01.387Z,17.87
2018-06-14T03:28:29.822Z,17.37
2018-06-14T03:30:58.518Z,26.77
2018-06-14T03:33:26.986Z,19.07
2018-06-14T03:35:55.815Z,23.90
2018-06-14T03:38:25.120Z,24.07
2018-06-14T03:40:54.245Z,19.03
2018-06-14T03:43:22.942Z,27.60
2018-06-14T03:45:51.279Z,16.50
2018-06-14T03:48:19.867Z,16.33
2018-06-14T03:50:48.610Z,17.93
2018-06-14T03:53:17.567Z,16.67
2018-06-14T03:55:46.483Z,14.13
2018-06-14T03:58:16.297Z,17.13
2018-06-14T04:00:45.571Z,24.37
2018-06-14T04:03:14.141Z,17.33
2018-06-14T04:05:42.829Z,13.27
2018-06-14T04:08:11.246Z,13.67
2018-06-14T04:10:39.839Z,12.63
2018-06-14T04:13:10.171Z,10.63
2018-06-14T04:15:39.317Z,16.93
2018-06-14T04:18:07.928Z,12.40
2018-06-14T04:20:36.322Z,16.47
2018-06-14T04:23:05.483Z,9.60
2018-06-14T04:25:34.268Z,9.53
2018-06-14T04:28:02.803Z,14.40
2018-06-14T04:30:31.698Z,7.80
2018-06-14T04:33:00.594Z,12.57
2018-06-14T04:35:29.064Z,8.67
2018-06-14T04:37:57.604Z,8.47
2018-06-14T04:40:26.087Z,13.80
2018-06-14T04:42:54.513Z,9.57
2018-06-14T04:45:23.002Z,8.17
2018-06-14T04:47:51.578Z,9.33
2018-06-14T04:50:20.111Z,12.40
2018-06-14T04:52:49.207Z,7.50
2018-06-14T04:55:17.688Z,7.53
2018-06-14T04:57:46.208Z,8.60
2018-06-14T05:00:14.853Z,7.97
2018-06-14T05:02:43.267Z,8.03
2018-06-14T05:05:11.837Z,8.00
2018-06-14T05:07:40.300Z,10.40
2018-06-14T05:10:09.481Z,8.47
2018-06-14T05:12:37.996Z,7.87
2018-06-14T05:15:06.583Z,8.10
2018-06-14T05:17:35.970Z,12.77
2018-06-14T05:20:05.239Z,7.47
2018-06-14T05:22:34.041Z,7.63
2018-06-14T05:25:03.639Z,8.53
2018-06-14T05:27:34.581Z,8.20
2018-06-14T05:30:03.351Z,7.43
2018-06-14T05:32:32.052Z,12.57
2018-06-14T05:35:01.172Z,12.93
2018-06-14T05:37:29.971Z,8.83
2018-06-14T05:39:59.828Z,7.97
2018-06-14T05:42:28.627Z,12.10
2018-06-14T05:44:57.341Z,8.60
2018-06-14T05:47:26.081Z,7.33
2018-06-14T05:49:55.181Z,14.07
2018-06-14T05:52:23.737Z,7.93
2018-06-14T05:54:53.816Z,13.23
2018-06-14T05:57:24.693Z,11.67
2018-06-14T05:59:53.489Z,6.47
2018-06-14T06:02:22.288Z,9.23
2018-06-14T06:04:51.103Z,7.57
2018-06-14T06:07:19.671Z,9.00
2018-06-14T06:09:48.632Z,8.50
2018-06-14T06:12:17.377Z,7.00
2018-06-14T06:14:46.431Z,6.67
2018-06-14T06:17:14.942Z,6.97
2018-06-14T06:19:43.396Z,16.10
2018-06-14T06:22:12.091Z,6.37
2018-06-14T06:24:40.729Z,6.00
2018-06-14T06:27:10.966Z,13.77
2018-06-14T06:29:40.163Z,20.83
2018-06-14T06:32:09.793Z,6.77
2018-06-14T06:34:38.533Z,9.33
2018-06-14T06:37:07.788Z,8.20
2018-06-14T06:39:37.221Z,10.30
2018-06-14T06:42:05.824Z,7.83
2018-06-14T06:44:34.304Z,7.10
2018-06-14T06:47:03.231Z,7.30
2018-06-14T06:49:32.166Z,8.40
2018-06-14T06:52:04.944Z,9.97
2018-06-14T06:54:34.328Z,9.83
2018-06-14T06:57:04.786Z,7.43
2018-06-14T06:59:33.676Z,12.90
2018-06-14T07:02:02.280Z,8.80
2018-06-14T07:04:30.754Z,12.00
2018-06-14T07:06:59.413Z,6.53
2018-06-14T07:09:27.850Z,7.53
2018-06-14T07:11:56.356Z,8.30
2018-06-14T07:14:24.724Z,6.43
2018-06-14T07:16:53.505Z,8.40
2018-06-14T07:19:22.400Z,8.67
2018-06-14T07:21:51.546Z,8.07
2018-06-14T07:24:19.929Z,6.80
2018-06-14T07:26:48.302Z,7.80
2018-06-14T07:29:16.864Z,7.03
2018-06-14T07:31:45.601Z,9.90
2018-06-14T07:34:14.715Z,5.80
2018-06-14T07:36:43.185Z,6.10
2018-06-14T07:39:12.796Z,5.30
2018-06-14T07:41:41.461Z,9.37
2018-06-14T07:44:09.849Z,5.97
2018-06-14T07:46:38.472Z,5.80
2018-06-14T07:49:06.838Z,6.70
2018-06-14T07:51:35.300Z,11.77
2018-06-14T07:54:03.954Z,11.33
2018-06-14T07:56:32.717Z,10.37
2018-06-14T07:59:01.002Z,6.80
2018-06-14T08:01:29.763Z,10.23
2018-06-14T08:03:58.201Z,7.43
2018-06-14T08:06:26.415Z,7.73
2018-06-14T08:08:54.745Z,6.30
2018-06-14T08:11:23.391Z,5.20
2018-06-14T08:13:52.813Z,6.80
2018-06-14T08:16:21.419Z,8.90
2018-06-14T08:18:49.868Z,5.73
2018-06-14T08:21:18.214Z,6.87
2018-06-14T08:23:46.669Z,6.17
2018-06-14T08:26:15.115Z,5.67
2018-06-14T08:28:43.532Z,6.03
2018-06-14T08:31:12.152Z,7.00
2018-06-14T08:33:40.586Z,5.10
2018-06-14T08:36:08.971Z,6.07
2018-06-14T08:38:37.646Z,5.00
2018-06-14T08:41:06.228Z,7.50
2018-06-14T08:43:34.585Z,6.37
2018-06-14T08:46:03.221Z,6.13
2018-06-14T08:48:31.582Z,4.93
2018-06-14T08:51:00.192Z,5.90
2018-06-14T08:53:28.546Z,6.80
2018-06-14T08:55:57.360Z,10.30
2018-06-14T08:58:26.090Z,6.17
2018-06-14T09:00:54.577Z,6.23
2018-06-14T09:03:23.249Z,5.10
2018-06-14T09:05:51.738Z,4.83
2018-06-14T09:08:20.149Z,6.40
2018-06-14T09:10:48.874Z,5.53
2018-06-14T09:13:17.261Z,7.00
2018-06-14T09:15:45.718Z,5.47
2018-06-14T09:18:14.211Z,14.93
2018-06-14T09:20:44.136Z,8.67
2018-06-14T09:23:13.312Z,12.80
2018-06-14T09:25:41.745Z,6.60
2018-06-14T09:28:10.900Z,7.50
2018-06-14T09:30:40.461Z,5.03
2018-06-14T09:33:08.821Z,4.67
2018-06-14T09:35:37.388Z,5.03
2018-06-14T09:38:05.800Z,7.47
2018-06-14T09:40:36.671Z,4.70
2018-06-14T09:43:05.542Z,6.33
2018-06-14T09:45:34.118Z,4.10
2018-06-14T09:48:02.708Z,4.27
2018-06-14T09:50:31.745Z,14.33
2018-06-14T09:53:00.403Z,4.23
2018-06-14T09:55:28.999Z,4.47
2018-06-14T09:57:57.478Z,5.00
2018-06-14T10:00:25.927Z,4.03
2018-06-14T10:02:54.370Z,3.60
2018-06-14T10:05:22.809Z,4.00
2018-06-14T10:07:55.765Z,3.30
2018-06-14T10:10:24.228Z,3.40
2018-06-14T10:12:53.240Z,4.47
2018-06-14T10:15:21.733Z,3.43
2018-06-14T10:17:50.560Z,3.73
2018-06-14T10:20:19.654Z,11.53
2018-06-14T10:22:48.691Z,3.50
2018-06-14T10:25:17.046Z,6.03
2018-06-14T10:28:39.418Z,7.90
2018-06-14T10:31:08.223Z,12.07
2018-06-14T10:33:39.112Z,4.50
2018-06-14T10:36:08.642Z,3.40
2018-06-14T10:38:38.945Z,7.90
2018-06-14T10:41:12.555Z,9.30
2018-06-14T10:43:41.128Z,4.70
2018-06-14T10:46:10.841Z,4.03
2018-06-14T10:48:39.386Z,4.30
2018-06-14T10:51:07.904Z,4.87
2018-06-14T10:53:37.052Z,4.50
2018-06-14T10:56:05.910Z,4.80
2018-06-14T10:58:34.660Z,5.03
2018-06-14T11:01:03.148Z,8.37
2018-06-14T11:03:31.274Z,5.30
2018-06-14T11:06:00.730Z,4.37
2018-06-14T11:08:29.425Z,7.20
2018-06-14T11:10:57.932Z,5.00
2018-06-14T11:13:26.449Z,12.10
2018-06-14T11:15:55.079Z,4.10
2018-06-14T11:18:23.589Z,4.30
2018-06-14T11:20:52.146Z,7.27
2018-06-14T11:23:20.764Z,6.80
2018-06-14T11:25:49.592Z,3.70
2018-06-14T11:28:18.542Z,4.30
2018-06-14T11:30:47.977Z,11.47
2018-06-14T11:33:16.476Z,3.90
2018-06-14T11:35:45.358Z,5.00
2018-06-14T11:38:14.064Z,4.37
2018-06-14T11:40:43.097Z,5.50
2018-06-14T11:43:11.440Z,4.30
2018-06-14T11:45:39.849Z,7.70
2018-06-14T11:48:08.645Z,3.80
2018-06-14T11:50:38.336Z,8.00
2018-06-14T11:53:07.439Z,4.70
2018-06-14T11:55:37.147Z,5.40
2018-06-14T11:58:06.131Z,4.43
2018-06-14T12:00:36.657Z,6.10
2018-06-14T12:03:05.465Z,5.90
2018-06-14T12:05:38.971Z,4.50
2018-06-14T12:08:08.362Z,6.10
2018-06-14T12:10:36.885Z,5.73
2018-06-14T12:13:05.322Z,6.10
2018-06-14T12:15:38.537Z,6.53
2018-06-14T12:18:07.129Z,6.13
2018-06-14T12:20:36.020Z,5.23
2018-06-14T12:23:04.682Z,6.13
2018-06-14T12:25:34.030Z,5.83
2018-06-14T12:28:02.516Z,5.53
2018-06-14T12:30:31.617Z,6.73
2018-06-14T12:35:56.629Z,6.30
2018-06-14T12:38:26.319Z,6.50
2018-06-14T12:40:54.849Z,5.70
2018-06-14T12:43:36.948Z,6.00
2018-06-14T12:46:05.438Z,5.00
2018-06-14T12:48:37.815Z,6.07
2018-06-14T12:51:06.459Z,8.60
2018-06-14T12:53:34.916Z,5.50
2018-06-14T12:56:04.780Z,21.23
2018-06-14T12:58:33.578Z,5.13
2018-06-14T13:01:02.535Z,5.63
2018-06-14T13:03:31.020Z,6.13
2018-06-14T13:05:59.850Z,10.87
2018-06-14T13:08:28.631Z,10.83
2018-06-14T13:10:59.128Z,4.90
2018-06-14T13:13:31.753Z,6.00
2018-06-14T13:16:00.277Z,5.57
2018-06-14T13:18:28.710Z,5.23
2018-06-14T13:20:57.875Z,6.47
2018-06-14T13:23:27.376Z,4.93
2018-06-14T13:25:56.611Z,4.53
2018-06-14T13:28:25.289Z,7.73
2018-06-14T13:30:53.784Z,4.77
2018-06-14T13:33:22.297Z,8.57
2018-06-14T13:35:51.040Z,4.07
2018-06-14T13:38:19.892Z,5.50
2018-06-14T13:40:48.690Z,4.87
2018-06-14T13:43:17.536Z,4.53
2018-06-14T13:45:46.098Z,5.37
2018-06-14T13:48:18.855Z,6.40
2018-06-14T13:50:47.422Z,4.13
2018-06-14T13:53:16.472Z,4.03
2018-06-14T13:55:45.107Z,14.60
2018-06-14T13:58:13.538Z,3.50
2018-06-14T14:00:42.235Z,3.77
2018-06-14T14:03:10.625Z,6.60
2018-06-14T14:05:39.715Z,13.20
2018-06-14T14:08:08.197Z,6.37
2018-06-14T14:10:36.779Z,4.73
2018-06-14T14:13:05.606Z,3.77
2018-06-14T14:15:34.617Z,5.07
2018-06-14T14:18:03.221Z,6.17
2018-06-14T14:20:34.672Z,14.27
2018-06-14T14:23:03.265Z,13.80
2018-06-14T14:25:32.215Z,14.67
2018-06-14T14:28:00.986Z,3.83
2018-06-14T14:30:29.928Z,4.00
2018-06-14T14:32:58.465Z,9.53
2018-06-14T14:35:26.952Z,10.53
2018-06-14T14:37:56.446Z,6.93
2018-06-14T14:40:24.991Z,3.03
2018-06-14T14:42:53.444Z,4.30
2018-06-14T14:45:21.966Z,4.13
2018-06-14T14:47:50.368Z,6.33
2018-06-14T14:50:19.972Z,5.00
2018-06-14T14:52:48.878Z,7.03
2018-06-14T14:55:17.585Z,6.33
2018-06-14T14:57:46.501Z,3.30
2018-06-14T15:00:14.870Z,11.17
2018-06-14T15:02:43.438Z,3.80
2018-06-14T15:05:13.684Z,3.50
2018-06-14T15:20:36.604Z,3.60
2018-06-14T15:23:05.058Z,5.87
2018-06-14T15:25:33.761Z,5.07
2018-06-14T15:28:02.799Z,13.90
2018-06-14T15:30:31.363Z,6.83
2018-06-14T15:32:59.820Z,8.47
2018-06-14T15:35:28.325Z,8.50
2018-06-14T15:37:56.901Z,6.10
2018-06-14T15:40:34.122Z,4.80
2018-06-14T15:43:02.620Z,9.20
2018-06-14T15:45:31.874Z,4.40
2018-06-14T15:48:00.308Z,10.73
2018-06-14T15:50:31.041Z,13.87
2018-06-14T15:52:59.469Z,8.60
2018-06-14T15:55:36.658Z,9.67
2018-06-14T15:58:06.998Z,15.73
2018-06-14T16:00:35.644Z,12.73
2018-06-14T16:03:04.373Z,12.43
2018-06-14T16:05:32.863Z,8.20
2018-06-14T16:08:01.292Z,8.37
2018-06-14T16:10:29.757Z,8.30
2018-06-14T16:12:58.188Z,9.57
2018-06-14T16:15:26.810Z,14.67
2018-06-14T16:17:55.235Z,10.17
2018-06-14T16:20:23.711Z,11.80
2018-06-14T16:22:53.683Z,13.40
2018-06-14T16:25:22.545Z,17.30
2018-06-14T16:27:50.828Z,12.23
2018-06-14T16:30:19.481Z,17.97
2018-06-14T16:32:47.994Z,16.63
2018-06-14T16:35:16.547Z,24.60
2018-06-14T16:37:46.085Z,21.00
2018-06-14T16:40:14.952Z,17.23
2018-06-14T16:42:43.446Z,18.43
2018-06-14T16:45:12.417Z,18.70
2018-06-14T16:47:42.442Z,18.67
2018-06-14T16:50:11.820Z,15.27
2018-06-14T16:52:40.998Z,20.70
2018-06-14T16:55:09.416Z,17.00
2018-06-14T16:57:38.454Z,20.43
2018-06-14T17:00:08.991Z,16.30
2018-06-14T17:02:38.027Z,21.33
2018-06-14T17:05:06.564Z,28.83
2018-06-14T17:07:34.910Z,17.13
2018-06-14T17:10:03.384Z,25.17
2018-06-14T17:12:31.869Z,34.07
2018-06-14T17:15:00.535Z,27.27
2018-06-14T17:17:28.978Z,18.87
2018-06-14T17:19:57.444Z,38.50
2018-06-14T17:22:26.565Z,117.47
2018-06-14T17:24:55.577Z,61.40
2018-06-14T17:27:24.267Z,50.30
2018-06-14T17:29:53.065Z,96.00
2018-06-14T17:32:21.705Z,21.63
2018-06-14T17:34:50.386Z,22.17
2018-06-14T17:37:19.145Z,22.10
2018-06-14T17:39:47.660Z,34.53
2018-06-14T17:42:16.259Z,25.10
2018-06-14T17:44:44.680Z,25.40
2018-06-14T17:47:14.924Z,28.50
2018-06-14T17:49:43.412Z,22.17
2018-06-14T17:52:13.340Z,22.17
2018-06-14T17:54:42.040Z,25.33
2018-06-14T17:57:10.646Z,25.77
2018-06-14T17:59:39.208Z,29.53
2018-06-14T18:02:07.646Z,30.53
2018-06-14T18:04:36.167Z,26.80
2018-06-14T18:07:08.284Z,30.83
2018-06-14T18:09:37.110Z,53.87
2018-06-14T18:12:05.968Z,33.70
2018-06-14T18:14:34.475Z,25.80
2018-06-14T18:17:04.836Z,29.27
2018-06-14T18:19:33.450Z,28.07
2018-06-14T18:22:03.875Z,24.17
2018-06-14T18:24:33.464Z,26.20
2018-06-14T18:27:02.764Z,21.13
2018-06-14T18:29:31.385Z,22.30
2018-06-14T18:32:00.442Z,22.93
2018-06-14T18:34:28.934Z,22.23
2018-06-14T18:36:58.339Z,22.63
2018-06-14T18:39:26.983Z,21.90
2018-06-14T18:41:55.516Z,32.10
2018-06-14T18:44:24.071Z,24.40
2018-06-14T18:46:52.822Z,22.73
2018-06-14T18:49:21.384Z,23.20
2018-06-14T18:51:49.785Z,23.13
2018-06-14T18:54:19.502Z,23.60
2018-06-14T18:56:48.584Z,20.33
2018-06-14T18:59:17.449Z,26.50
2018-06-14T19:01:46.782Z,19.77
2018-06-14T19:04:15.280Z,25.77
2018-06-14T19:06:44.847Z,22.20
2018-06-14T19:09:13.285Z,19.20
2018-06-14T19:11:42.034Z,26.20
2018-06-14T19:14:10.637Z,22.70
2018-06-14T19:16:39.119Z,31.83
2018-06-14T19:19:07.844Z,20.27
2018-06-14T19:21:36.440Z,20.83
2018-06-14T19:24:04.982Z,26.50
2018-06-14T19:26:33.486Z,29.47
2018-06-14T19:29:01.950Z,22.97
2018-06-14T19:31:30.574Z,20.27
2018-06-14T19:33:59.121Z,28.53
2018-06-14T19:36:28.372Z,24.90
2018-06-14T19:38:56.871Z,21.20
2018-06-14T19:41:25.830Z,25.80
2018-06-14T19:43:54.694Z,21.67
2018-06-14T19:46:23.526Z,21.97
2018-06-14T19:48:52.214Z,21.10
2018-06-14T19:51:20.831Z,21.53
2018-06-14T19:53:49.475Z,22.90
2018-06-14T19:56:18.423Z,26.67
2018-06-14T19:58:46.846Z,21.63
2018-06-14T20:01:15.462Z,21.80
2018-06-14T20:03:44.060Z,25.60
2018-06-14T20:06:12.459Z,23.33
2018-06-14T20:08:41.078Z,28.20
2018-06-14T20:11:09.538Z,22.00
2018-06-14T20:13:38.292Z,23.53
2018-06-14T20:16:06.985Z,23.70
2018-06-14T20:18:35.466Z,23.20
2018-06-14T20:21:03.998Z,21.13
2018-06-14T20:23:32.584Z,27.77
2018-06-14T20:26:01.088Z,25.60
2018-06-14T20:28:29.697Z,25.33
2018-06-14T20:30:58.275Z,25.97
2018-06-14T20:33:27.055Z,23.83
2018-06-14T20:35:55.598Z,27.40
2018-06-14T20:38:24.130Z,29.17
2018-06-14T20:40:52.615Z,25.10
2018-06-14T20:43:21.073Z,24.17
2018-06-14T20:45:49.667Z,25.77
2018-06-14T20:48:18.345Z,21.40
2018-06-14T20:50:46.993Z,25.13
2018-06-14T20:53:15.479Z,21.93
2018-06-14T20:55:43.958Z,24.17
2018-06-14T20:58:12.377Z,33.23
2018-06-14T21:00:40.923Z,25.50
2018-06-14T21:03:09.461Z,21.83
2018-06-14T21:05:37.966Z,22.93
2018-06-14T21:08:07.382Z,26.33
2018-06-14T21:10:36.019Z,27.10
2018-06-14T21:13:04.377Z,31.03
2018-06-14T21:15:32.809Z,30.30
2018-06-14T21:18:01.397Z,24.77
2018-06-14T21:20:30.131Z,21.93
2018-06-14T21:22:59.959Z,20.80
2018-06-14T21:25:28.997Z,24.27
2018-06-14T21:27:57.637Z,26.83
2018-06-14T21:30:26.261Z,22.43
2018-06-14T21:32:54.790Z,27.03
2018-06-14T21:35:23.755Z,21.60
2018-06-14T21:37:52.301Z,26.47
2018-06-14T21:40:20.963Z,21.70
2018-06-14T21:42:49.936Z,28.27
2018-06-14T21:45:18.705Z,27.80
2018-06-14T21:47:47.247Z,24.70
2018-06-14T21:50:15.386Z,27.73
2018-06-14T21:52:44.246Z,36.20
2018-06-14T21:55:13.054Z,26.10
2018-06-14T21:57:41.529Z,30.10
2018-06-14T22:00:10.115Z,32.20
2018-06-14T22:02:45.070Z,33.73
2018-06-14T22:05:13.976Z,30.40
2018-06-14T22:07:43.285Z,32.43
2018-06-14T22:10:12.103Z,30.67
2018-06-14T22:12:40.736Z,31.53
2018-06-14T22:15:16.683Z,38.50
2018-06-14T22:17:45.422Z,35.57
2018-06-14T22:20:14.523Z,42.47
2018-06-14T22:22:43.028Z,32.03
2018-06-14T22:25:13.456Z,41.83
2018-06-14T22:27:42.087Z,35.23
2018-06-14T22:30:11.059Z,37.53
2018-06-14T22:32:40.619Z,43.10
2018-06-14T22:35:19.374Z,31.10
2018-06-14T22:37:49.810Z,29.33
2018-06-14T22:40:18.409Z,32.17
2018-06-14T22:42:48.104Z,38.13
2018-06-14T22:45:16.826Z,27.07
2018-06-14T22:47:45.273Z,28.70
2018-06-14T22:50:14.700Z,36.73
2018-06-14T22:52:51.221Z,35.07
2018-06-14T22:55:21.746Z,26.03
2018-06-14T22:57:51.416Z,25.27
2018-06-14T23:00:28.712Z,27.27
2018-06-14T23:02:57.318Z,23.27
2018-06-14T23:05:26.114Z,25.87
2018-06-14T23:07:54.808Z,22.23
2018-06-14T23:10:33.566Z,19.83
2018-06-14T23:13:02.780Z,29.63
2018-06-14T23:15:32.960Z,20.53
2018-06-14T23:18:01.965Z,23.57
2018-06-14T23:20:33.472Z,18.23
2018-06-14T23:23:02.704Z,21.70
2018-06-14T23:25:31.783Z,20.40
2018-06-14T23:28:00.197Z,27.10
2018-06-14T23:30:28.845Z,18.53
2018-06-14T23:32:57.300Z,24.03
2018-06-14T23:35:25.945Z,18.23
2018-06-14T23:37:55.126Z,22.53
2018-06-14T23:40:24.514Z,23.53
2018-06-14T23:42:53.322Z,19.93
2018-06-14T23:45:21.928Z,19.73
2018-06-14T23:47:50.918Z,20.40
2018-06-14T23:50:20.410Z,25.53
2018-06-14T23:52:49.086Z,24.83
2018-06-14T23:55:17.639Z,27.27
2018-06-14T23:57:46.046Z,22.00
